createdAt,value
2022-09-21T00:01:46.907Z,14.36
2022-09-21T00:04:16.165Z,14.35
2022-09-21T00:06:44.782Z,14.33
2022-09-21T00:09:13.898Z,14.29
2022-09-21T00:11:43.126Z,14.27
2022-09-21T00:14:14.867Z,14.25
2022-09-21T00:16:44.852Z,14.23
2022-09-21T00:19:17.347Z,14.21
2022-09-21T00:21:45.873Z,14.16
2022-09-21T00:24:14.100Z,14.14
2022-09-21T00:26:42.867Z,14.12
2022-09-21T00:29:13.039Z,14.10
2022-09-21T00:31:41.497Z,14.09
2022-09-21T00:34:09.864Z,14.05
2022-09-21T00:36:40.300Z,14.04
2022-09-21T00:39:09.084Z,14.02
2022-09-21T00:41:37.397Z,13.98
2022-09-21T00:44:26.609Z,13.98
2022-09-21T00:46:58.135Z,13.95
2022-09-21T00:49:29.353Z,13.95
2022-09-21T00:52:05.110Z,13.92
2022-09-21T00:54:39.596Z,13.90
2022-09-21T00:57:09.298Z,13.86
2022-09-21T00:59:40.399Z,13.84
2022-09-21T01:02:08.813Z,13.80
2022-09-21T01:04:38.029Z,13.80
2022-09-21T01:07:12.785Z,13.81
2022-09-21T01:09:43.470Z,13.76
2022-09-21T01:12:27.952Z,13.76
2022-09-21T01:15:11.929Z,13.74
2022-09-21T01:17:48.198Z,13.71
2022-09-21T01:20:41.856Z,13.68
2022-09-21T01:23:36.425Z,13.65
2022-09-21T01:26:17.580Z,13.63
2022-09-21T01:29:14.071Z,13.61
2022-09-21T01:31:49.191Z,13.51
2022-09-21T01:34:25.801Z,13.57
2022-09-21T01:36:56.858Z,13.52
2022-09-21T01:39:27.796Z,13.48
2022-09-21T01:41:58.151Z,13.45
2022-09-21T01:44:33.569Z,13.45
2022-09-21T01:47:03.000Z,13.46
2022-09-21T01:49:36.664Z,13.45
2022-09-21T01:52:14.080Z,13.42
2022-09-21T01:54:48.707Z,13.39
2022-09-21T01:57:26.191Z,13.37
2022-09-21T01:59:59.082Z,13.35
2022-09-21T02:02:36.951Z,13.33
2022-09-21T02:05:07.904Z,13.27
2022-09-21T02:07:39.357Z,13.28
2022-09-21T02:10:13.096Z,13.27
2022-09-21T02:12:42.909Z,13.24
2022-09-21T02:15:13.532Z,13.25
2022-09-21T02:17:49.859Z,13.24
2022-09-21T02:20:24.946Z,13.22
2022-09-21T02:23:04.710Z,13.21
2022-09-21T02:25:43.629Z,13.20
2022-09-21T02:28:24.102Z,13.19
2022-09-21T02:31:01.115Z,13.16
2022-09-21T02:33:36.680Z,13.16
2022-09-21T02:36:11.128Z,13.15
2022-09-21T02:38:43.578Z,13.12
2022-09-21T02:41:18.901Z,13.11
2022-09-21T02:43:52.811Z,13.10
2022-09-21T02:46:29.144Z,13.08
2022-09-21T02:49:02.255Z,13.06
2022-09-21T02:51:34.466Z,13.03
2022-09-21T02:54:07.312Z,12.94
2022-09-21T02:56:37.456Z,12.99
2022-09-21T02:59:08.693Z,12.97
2022-09-21T03:01:41.953Z,12.96
2022-09-21T03:04:11.141Z,12.93
2022-09-21T03:06:39.831Z,12.88
2022-09-21T03:09:08.470Z,12.88
2022-09-21T03:11:38.609Z,12.85
2022-09-21T03:14:08.947Z,12.83
2022-09-21T03:16:39.715Z,12.83
2022-09-21T03:19:08.487Z,12.80
2022-09-21T03:21:39.217Z,12.78
2022-09-21T03:24:10.863Z,12.77
2022-09-21T03:26:39.597Z,12.74
2022-09-21T03:29:08.650Z,12.74
2022-09-21T03:31:38.919Z,12.73
2022-09-21T03:34:07.718Z,12.71
2022-09-21T03:36:35.820Z,12.70
2022-09-21T03:39:04.728Z,12.69
2022-09-21T03:41:33.441Z,12.68
2022-09-21T03:44:01.566Z,12.66
2022-09-21T03:46:30.346Z,12.65
2022-09-21T03:49:00.046Z,12.66
2022-09-21T03:51:28.359Z,12.64
2022-09-21T03:53:57.625Z,12.63
2022-09-21T03:56:26.758Z,12.62
2022-09-21T03:58:54.887Z,12.61
2022-09-21T04:01:23.985Z,12.60
2022-09-21T04:03:52.869Z,12.58
2022-09-21T04:06:22.709Z,12.57
2022-09-21T04:08:53.984Z,12.55
2022-09-21T04:11:23.634Z,12.55
2022-09-21T04:13:57.504Z,12.54
2022-09-21T04:16:26.863Z,12.53
2022-09-21T04:18:55.555Z,12.53
2022-09-21T04:21:25.745Z,12.52
2022-09-21T04:23:54.627Z,12.52
2022-09-21T04:26:25.351Z,12.51
2022-09-21T04:28:55.725Z,12.49
2022-09-21T04:31:24.523Z,12.49
2022-09-21T04:33:54.399Z,12.47
2022-09-21T04:36:25.833Z,12.48
2022-09-21T04:38:53.854Z,12.47
2022-09-21T04:41:22.264Z,12.45
2022-09-21T04:43:50.946Z,12.43
2022-09-21T04:46:25.489Z,12.45
2022-09-21T04:48:53.931Z,12.41
2022-09-21T04:51:21.835Z,12.40
2022-09-21T04:53:51.344Z,12.39
2022-09-21T04:56:19.817Z,12.38
2022-09-21T04:58:47.782Z,12.35
2022-09-21T05:01:16.302Z,12.33
2022-09-21T05:03:44.222Z,12.32
2022-09-21T05:06:13.556Z,12.31
2022-09-21T05:09:00.127Z,12.30
2022-09-21T05:11:29.485Z,12.29
2022-09-21T05:13:57.860Z,12.26
2022-09-21T05:16:25.734Z,12.25
2022-09-21T05:18:55.405Z,12.24
2022-09-21T05:21:24.079Z,12.23
2022-09-21T05:23:52.084Z,12.23
2022-09-21T05:26:20.083Z,12.21
2022-09-21T05:28:50.704Z,12.19
2022-09-21T05:31:32.095Z,12.21
2022-09-21T05:34:06.709Z,12.18
2022-09-21T05:36:46.841Z,12.19
2022-09-21T05:39:15.867Z,12.16
2022-09-21T05:41:44.441Z,12.14
2022-09-21T05:44:16.772Z,12.15
2022-09-21T05:46:56.074Z,12.13
2022-09-21T05:49:35.276Z,12.13
2022-09-21T05:52:11.010Z,12.13
2022-09-21T05:54:51.693Z,12.14
2022-09-21T05:57:35.298Z,12.13
2022-09-21T06:00:16.250Z,12.13
2022-09-21T06:03:07.306Z,12.14
2022-09-21T06:05:35.947Z,12.12
2022-09-21T06:08:04.174Z,12.13
2022-09-21T06:10:36.904Z,12.16
2022-09-21T06:13:05.325Z,12.15
2022-09-21T06:15:38.936Z,12.17
2022-09-21T06:18:07.444Z,12.19
2022-09-21T06:20:36.319Z,12.21
2022-09-21T06:23:05.379Z,12.22
2022-09-21T06:25:33.972Z,12.24
2022-09-21T06:28:06.221Z,12.28
2022-09-21T06:30:36.389Z,12.30
2022-09-21T06:33:06.746Z,12.32
2022-09-21T06:35:37.211Z,12.36
2022-09-21T06:38:08.869Z,12.40
2022-09-21T06:40:38.803Z,12.44
2022-09-21T06:43:07.715Z,12.48
2022-09-21T06:45:38.321Z,12.55
2022-09-21T06:48:06.934Z,12.62
2022-09-21T06:50:39.091Z,12.71
2022-09-21T06:53:07.920Z,12.77
2022-09-21T06:55:36.732Z,12.85
2022-09-21T06:58:06.097Z,12.94
2022-09-21T07:00:37.171Z,13.01
2022-09-21T07:03:05.845Z,13.07
2022-09-21T07:05:34.141Z,13.16
2022-09-21T07:08:03.908Z,13.24
2022-09-21T07:10:32.462Z,13.32
2022-09-21T07:13:05.341Z,13.39
2022-09-21T07:15:34.355Z,13.46
2022-09-21T07:18:12.319Z,13.57
2022-09-21T07:20:41.240Z,13.65
2022-09-21T07:23:15.386Z,13.77
2022-09-21T07:25:44.278Z,13.85
2022-09-21T07:28:12.944Z,13.95
2022-09-21T07:30:42.630Z,14.07
2022-09-21T07:33:12.598Z,14.20
2022-09-21T07:35:41.829Z,14.32
2022-09-21T07:38:10.326Z,14.32
2022-09-21T07:40:38.652Z,14.57
2022-09-21T07:43:08.497Z,14.69
2022-09-21T07:45:36.803Z,14.83
2022-09-21T07:48:05.956Z,14.95
2022-09-21T07:50:35.696Z,15.12
2022-09-21T07:53:05.389Z,15.23
2022-09-21T07:55:33.596Z,15.34
2022-09-21T07:58:19.992Z,15.42
2022-09-21T08:00:47.826Z,15.54
2022-09-21T08:03:15.709Z,15.62
2022-09-21T08:05:45.065Z,15.74
2022-09-21T08:08:13.053Z,15.86
2022-09-21T08:10:41.021Z,15.96
2022-09-21T08:13:08.734Z,16.07
2022-09-21T08:15:49.204Z,16.17
2022-09-21T08:18:17.770Z,16.30
2022-09-21T08:20:55.234Z,16.39
2022-09-21T08:23:23.065Z,16.51
2022-09-21T08:25:51.136Z,16.62
2022-09-21T08:28:19.165Z,16.74
2022-09-21T08:30:46.938Z,16.88
2022-09-21T08:33:14.942Z,16.96
2022-09-21T08:35:43.807Z,17.06
2022-09-21T08:38:12.936Z,17.15
2022-09-21T08:40:42.281Z,17.25
2022-09-21T08:43:14.306Z,17.35
2022-09-21T08:45:45.237Z,17.47
2022-09-21T08:48:22.903Z,17.59
2022-09-21T08:50:58.168Z,17.69
2022-09-21T08:53:33.709Z,17.82
2022-09-21T08:56:02.908Z,17.94
2022-09-21T08:58:32.726Z,18.04
2022-09-21T09:01:20.996Z,18.19
2022-09-21T09:04:05.972Z,18.32
2022-09-21T09:06:43.400Z,18.42
2022-09-21T09:09:27.760Z,18.50
2022-09-21T09:12:11.389Z,18.60
2022-09-21T09:14:54.424Z,18.69
2022-09-21T09:17:34.803Z,18.76
2022-09-21T09:20:06.785Z,18.83
2022-09-21T09:22:41.669Z,18.93
2022-09-21T09:25:20.663Z,18.99
2022-09-21T09:27:51.935Z,19.05
2022-09-21T09:30:23.096Z,19.12
2022-09-21T09:32:57.752Z,19.20
2022-09-21T09:35:31.242Z,19.26
2022-09-21T09:38:05.246Z,19.32
2022-09-21T09:40:54.476Z,19.41
2022-09-21T09:43:32.618Z,19.48
2022-09-21T09:46:12.930Z,19.52
2022-09-21T09:49:06.750Z,19.56
2022-09-21T09:51:40.869Z,19.59
2022-09-21T09:54:15.197Z,19.65
2022-09-21T09:56:45.398Z,19.64
2022-09-21T09:59:24.980Z,19.65
2022-09-21T10:02:02.065Z,19.58
2022-09-21T10:04:30.825Z,19.61
2022-09-21T10:06:58.685Z,19.58
2022-09-21T10:09:29.333Z,19.64
2022-09-21T10:12:09.538Z,19.66
2022-09-21T10:14:38.168Z,19.69
2022-09-21T10:17:09.496Z,19.68
2022-09-21T10:19:38.194Z,19.71
2022-09-21T10:22:07.325Z,19.72
2022-09-21T10:24:40.629Z,19.62
2022-09-21T10:27:15.638Z,19.49
2022-09-21T10:29:44.687Z,19.59
2022-09-21T10:32:22.639Z,19.62
2022-09-21T10:35:18.150Z,19.59
2022-09-21T10:37:49.110Z,19.53
2022-09-21T10:40:30.760Z,19.56
2022-09-21T10:43:01.965Z,19.57
2022-09-21T10:45:31.297Z,19.54
2022-09-21T10:48:00.911Z,19.39
2022-09-21T10:50:30.713Z,19.46
2022-09-21T10:53:02.616Z,19.37
2022-09-21T10:55:32.833Z,19.40
2022-09-21T10:58:02.167Z,19.19
2022-09-21T11:00:39.385Z,19.11
2022-09-21T11:03:42.937Z,19.19
2022-09-21T11:06:17.461Z,18.95
2022-09-21T11:08:50.299Z,19.02
2022-09-21T11:11:42.807Z,19.04
2022-09-21T11:14:28.816Z,19.03
2022-09-21T11:16:59.274Z,18.92
2022-09-21T11:19:36.283Z,18.96
2022-09-21T11:22:13.433Z,18.91
2022-09-21T11:24:49.167Z,18.87
2022-09-21T11:27:22.703Z,18.74
2022-09-21T11:30:01.787Z,18.79
2022-09-21T11:32:59.607Z,18.75
2022-09-21T11:35:44.706Z,18.81
2022-09-21T11:38:20.698Z,18.82
2022-09-21T11:41:15.032Z,18.90
2022-09-21T11:44:16.221Z,18.94
2022-09-21T11:46:53.170Z,18.86
2022-09-21T11:49:37.391Z,18.86
2022-09-21T11:52:20.350Z,18.98
2022-09-21T11:55:02.446Z,19.05
2022-09-21T11:57:36.586Z,19.14
2022-09-21T12:00:16.321Z,19.22
2022-09-21T12:03:23.663Z,19.30
2022-09-21T12:06:07.012Z,19.38
2022-09-21T12:08:50.137Z,19.42
2022-09-21T12:11:30.732Z,19.38
2022-09-21T12:14:07.792Z,19.32
2022-09-21T12:16:43.523Z,19.43
2022-09-21T12:19:20.277Z,19.52
2022-09-21T12:21:53.510Z,19.58
2022-09-21T12:24:28.544Z,19.67
2022-09-21T12:27:04.979Z,19.79
2022-09-21T12:29:47.304Z,19.87
2022-09-21T12:32:23.129Z,19.98
2022-09-21T12:34:56.777Z,20.07
2022-09-21T12:37:32.230Z,20.17
2022-09-21T12:40:02.280Z,20.28
2022-09-21T12:42:35.395Z,20.37
2022-09-21T12:45:09.045Z,20.46
2022-09-21T12:47:48.891Z,20.52
2022-09-21T12:50:22.131Z,20.56
2022-09-21T12:52:53.430Z,20.62
2022-09-21T12:55:33.509Z,20.51
2022-09-21T12:58:16.713Z,20.55
2022-09-21T13:00:53.815Z,20.59
2022-09-21T13:03:30.063Z,20.60
2022-09-21T13:06:23.773Z,20.64
2022-09-21T13:08:54.421Z,20.62
2022-09-21T13:11:23.443Z,20.66
2022-09-21T13:14:00.111Z,20.69
2022-09-21T13:16:31.018Z,20.75
2022-09-21T13:19:01.812Z,20.79
2022-09-21T13:21:31.368Z,20.79
2022-09-21T13:24:03.603Z,20.84
2022-09-21T13:26:40.085Z,20.88
2022-09-21T13:29:31.904Z,20.92
2022-09-21T13:32:01.484Z,20.96
2022-09-21T13:34:32.801Z,20.94
2022-09-21T13:37:30.380Z,20.78
2022-09-21T13:40:42.938Z,20.68
2022-09-21T13:43:47.180Z,20.59
2022-09-21T13:46:53.869Z,20.32
2022-09-21T13:49:25.074Z,20.40
2022-09-21T13:51:57.391Z,20.20
2022-09-21T13:54:30.901Z,20.15
2022-09-21T13:57:09.024Z,20.03
2022-09-21T13:59:40.729Z,19.93
2022-09-21T14:02:25.351Z,19.93
2022-09-21T14:04:53.565Z,19.96
2022-09-21T14:07:21.630Z,19.82
2022-09-21T14:09:57.951Z,19.73
2022-09-21T14:12:29.567Z,19.69
2022-09-21T14:15:27.372Z,19.72
2022-09-21T14:18:21.433Z,19.74
2022-09-21T14:21:14.303Z,19.76
2022-09-21T14:23:42.165Z,19.77
2022-09-21T14:26:24.628Z,19.83
2022-09-21T14:28:54.400Z,19.85
2022-09-21T14:31:29.296Z,19.92
2022-09-21T14:34:01.078Z,19.98
2022-09-21T14:36:41.420Z,20.04
2022-09-21T14:39:20.377Z,20.11
2022-09-21T14:41:51.905Z,20.16
2022-09-21T14:44:22.708Z,20.10
2022-09-21T14:47:30.506Z,20.09
2022-09-21T14:50:21.888Z,20.11
2022-09-21T14:53:12.582Z,20.18
2022-09-21T14:56:10.323Z,20.24
2022-09-21T14:58:52.126Z,20.28
2022-09-21T15:01:27.452Z,20.34
2022-09-21T15:04:03.634Z,20.39
2022-09-21T15:06:53.964Z,20.47
2022-09-21T15:09:54.853Z,20.51
2022-09-21T15:12:32.347Z,20.52
2022-09-21T15:15:13.192Z,20.56
2022-09-21T15:17:57.271Z,20.59
2022-09-21T15:20:30.615Z,20.63
2022-09-21T15:23:00.141Z,20.65
2022-09-21T15:25:32.040Z,20.68
2022-09-21T15:28:00.955Z,20.70
2022-09-21T15:30:33.142Z,20.74
2022-09-21T15:33:03.267Z,20.76
2022-09-21T15:35:34.555Z,20.78
2022-09-21T15:38:02.426Z,20.78
2022-09-21T15:40:33.054Z,20.77
2022-09-21T15:43:03.908Z,20.79
2022-09-21T15:45:37.355Z,20.79
2022-09-21T15:48:09.208Z,20.79
2022-09-21T15:50:39.509Z,20.78
2022-09-21T15:53:14.695Z,20.75
2022-09-21T15:55:48.688Z,20.74
2022-09-21T15:58:26.683Z,20.71
2022-09-21T16:00:57.164Z,20.68
2022-09-21T16:03:27.107Z,20.64
2022-09-21T16:06:00.679Z,20.61
2022-09-21T16:08:31.637Z,20.56
2022-09-21T16:11:19.237Z,20.55
2022-09-21T16:14:06.037Z,20.50
2022-09-21T16:16:34.585Z,20.45
2022-09-21T16:19:02.461Z,20.40
2022-09-21T16:21:34.589Z,20.37
2022-09-21T16:24:12.629Z,20.34
2022-09-21T16:26:41.799Z,20.27
2022-09-21T16:29:23.571Z,20.23
2022-09-21T16:31:52.205Z,20.17
2022-09-21T16:34:22.862Z,20.13
2022-09-21T16:36:55.156Z,20.09
2022-09-21T16:39:23.616Z,20.02
2022-09-21T16:42:00.373Z,19.99
2022-09-21T16:44:31.517Z,19.93
2022-09-21T16:47:01.850Z,19.88
2022-09-21T16:49:32.668Z,19.83
2022-09-21T16:52:02.548Z,19.80
2022-09-21T16:54:31.024Z,19.72
2022-09-21T16:57:00.497Z,19.70
2022-09-21T16:59:29.598Z,19.65
2022-09-21T17:01:59.281Z,19.61
2022-09-21T17:04:30.130Z,19.57
2022-09-21T17:06:58.380Z,19.52
2022-09-21T17:09:31.847Z,19.50
2022-09-21T17:12:01.208Z,19.44
2022-09-21T17:14:33.053Z,19.39
2022-09-21T17:17:01.096Z,19.37
2022-09-21T17:19:29.396Z,19.34
2022-09-21T17:21:57.103Z,19.30
2022-09-21T17:24:46.302Z,19.24
2022-09-21T17:27:18.040Z,19.21
2022-09-21T17:29:48.265Z,19.14
2022-09-21T17:32:18.307Z,19.09
2022-09-21T17:34:46.111Z,19.04
2022-09-21T17:37:14.320Z,18.99
2022-09-21T17:39:43.005Z,18.95
2022-09-21T17:42:19.511Z,18.92
2022-09-21T17:45:12.448Z,18.85
2022-09-21T17:47:41.400Z,18.79
2022-09-21T17:50:24.535Z,18.76
2022-09-21T17:53:10.868Z,18.68
2022-09-21T17:55:40.336Z,18.63
2022-09-21T17:58:37.760Z,18.59
2022-09-21T18:01:09.341Z,18.54
2022-09-21T18:03:41.029Z,18.47
2022-09-21T18:06:10.709Z,18.42
2022-09-21T18:08:40.070Z,18.38
2022-09-21T18:11:29.104Z,18.32
2022-09-21T18:14:08.830Z,18.27
2022-09-21T18:16:49.413Z,18.23
2022-09-21T18:19:36.572Z,18.19
2022-09-21T18:22:14.076Z,18.15
2022-09-21T18:24:42.875Z,18.05
2022-09-21T18:27:12.941Z,18.03
2022-09-21T18:29:41.955Z,17.96
2022-09-21T18:32:26.851Z,17.93
2022-09-21T18:35:15.078Z,17.88
2022-09-21T18:37:53.520Z,17.85
2022-09-21T18:40:29.678Z,17.80
2022-09-21T18:43:06.069Z,17.75
2022-09-21T18:45:39.089Z,17.69
2022-09-21T18:48:21.440Z,17.65
2022-09-21T18:50:58.974Z,17.63
2022-09-21T18:53:34.447Z,17.58
2022-09-21T18:56:02.804Z,17.57
2022-09-21T18:58:31.197Z,17.53
2022-09-21T19:01:00.330Z,17.47
2022-09-21T19:03:30.766Z,17.42
2022-09-21T19:06:22.282Z,17.38
2022-09-21T19:08:59.315Z,17.34
2022-09-21T19:11:34.774Z,17.30
2022-09-21T19:14:12.521Z,17.26
2022-09-21T19:16:55.644Z,17.22
2022-09-21T19:19:37.477Z,17.17
2022-09-21T19:22:15.627Z,17.14
2022-09-21T19:24:55.999Z,17.10
2022-09-21T19:27:31.117Z,17.06
2022-09-21T19:30:05.945Z,17.02
2022-09-21T19:32:39.949Z,16.98
2022-09-21T19:35:20.570Z,16.95
2022-09-21T19:37:49.289Z,16.92
2022-09-21T19:40:18.912Z,16.88
2022-09-21T19:43:06.756Z,16.86
2022-09-21T19:45:45.487Z,16.83
2022-09-21T19:48:16.080Z,16.77
2022-09-21T19:50:50.957Z,16.75
2022-09-21T19:53:37.304Z,16.70
2022-09-21T19:56:28.771Z,16.69
2022-09-21T19:59:15.356Z,16.63
2022-09-21T20:01:52.606Z,16.61
2022-09-21T20:04:28.300Z,16.41
2022-09-21T20:07:03.326Z,16.52
2022-09-21T20:09:40.007Z,16.48
2022-09-21T20:12:17.264Z,16.46
2022-09-21T20:14:51.730Z,16.41
2022-09-21T20:17:23.033Z,16.39
2022-09-21T20:19:57.643Z,16.37
2022-09-21T20:22:33.821Z,16.33
2022-09-21T20:25:08.023Z,16.30
2022-09-21T20:27:40.068Z,16.27
2022-09-21T20:30:11.428Z,16.21
2022-09-21T20:32:42.466Z,16.18
2022-09-21T20:35:16.989Z,16.15
2022-09-21T20:37:46.980Z,16.12
2022-09-21T20:40:16.175Z,16.08
2022-09-21T20:42:44.580Z,16.04
2022-09-21T20:45:13.996Z,16.01
2022-09-21T20:47:42.956Z,15.97
2022-09-21T20:50:13.640Z,15.96
2022-09-21T20:52:42.839Z,15.92
2022-09-21T20:55:14.036Z,15.91
2022-09-21T20:57:42.661Z,15.86
2022-09-21T21:00:13.410Z,15.85
2022-09-21T21:02:41.657Z,15.81
2022-09-21T21:05:11.714Z,15.79
2022-09-21T21:07:44.291Z,15.76
2022-09-21T21:10:16.639Z,15.73
2022-09-21T21:12:44.901Z,15.50
2022-09-21T21:15:13.687Z,15.67
2022-09-21T21:17:42.791Z,15.64
2022-09-21T21:20:12.425Z,15.60
2022-09-21T21:22:40.496Z,15.57
2022-09-21T21:25:09.465Z,15.54
2022-09-21T21:27:38.872Z,15.52
2022-09-21T21:30:08.623Z,15.48
2022-09-21T21:32:37.709Z,15.45
2022-09-21T21:35:07.947Z,15.43
2022-09-21T21:37:36.669Z,15.41
2022-09-21T21:40:04.918Z,15.38
2022-09-21T21:42:32.715Z,15.34
2022-09-21T21:45:03.564Z,15.33
2022-09-21T21:47:40.201Z,15.28
2022-09-21T21:50:10.123Z,15.26
2022-09-21T21:52:38.393Z,15.23
2022-09-21T21:55:07.494Z,15.21
2022-09-21T21:57:35.694Z,15.16
2022-09-21T22:00:06.493Z,15.14
2022-09-21T22:02:35.000Z,14.99
2022-09-21T22:05:02.971Z,15.09
2022-09-21T22:07:30.870Z,15.07
2022-09-21T22:09:59.147Z,15.03
2022-09-21T22:12:27.032Z,15.02
2022-09-21T22:14:55.250Z,15.00
2022-09-21T22:17:24.579Z,14.99
2022-09-21T22:19:54.041Z,14.96
2022-09-21T22:22:22.094Z,14.95
2022-09-21T22:24:50.102Z,14.92
2022-09-21T22:27:18.021Z,14.90
2022-09-21T22:29:45.994Z,14.87
2022-09-21T22:32:14.553Z,14.77
2022-09-21T22:34:43.762Z,14.83
2022-09-21T22:37:11.561Z,14.80
2022-09-21T22:39:39.494Z,14.79
2022-09-21T22:42:07.426Z,14.76
2022-09-21T22:44:35.808Z,14.74
2022-09-21T22:47:03.568Z,14.72
2022-09-21T22:49:31.616Z,14.69
2022-09-21T22:52:01.308Z,14.68
2022-09-21T22:54:29.513Z,14.65
2022-09-21T22:56:57.396Z,14.62
2022-09-21T22:59:25.958Z,14.59
2022-09-21T23:01:54.722Z,14.58
2022-09-21T23:04:23.174Z,14.58
2022-09-21T23:06:51.992Z,14.54
2022-09-21T23:09:22.490Z,14.53
2022-09-21T23:11:54.220Z,14.50
2022-09-21T23:14:23.379Z,14.47
2022-09-21T23:16:52.001Z,14.47
2022-09-21T23:19:20.191Z,14.43
2022-09-21T23:21:50.718Z,14.43
2022-09-21T23:24:20.407Z,14.37
2022-09-21T23:26:51.704Z,14.38
2022-09-21T23:29:20.156Z,14.34
2022-09-21T23:31:48.286Z,14.32
2022-09-21T23:34:17.576Z,14.29
2022-09-21T23:36:46.866Z,14.29
2022-09-21T23:39:16.823Z,14.24
2022-09-21T23:41:45.232Z,14.22
2022-09-21T23:44:15.015Z,14.22
2022-09-21T23:46:43.205Z,14.16
2022-09-21T23:49:11.391Z,14.15
2022-09-21T23:51:39.743Z,14.14
2022-09-21T23:54:08.028Z,14.10
2022-09-21T23:56:37.481Z,14.09
2022-09-21T23:59:05.519Z,14.07
